createdAt,value
2017-08-28T00:02:06.612Z,19.10
2017-08-28T00:04:34.117Z,19.10
2017-08-28T00:07:01.908Z,19.20
2017-08-28T00:09:37.322Z,19.30
2017-08-28T00:12:05.044Z,19.30
2017-08-28T00:14:32.837Z,19.30
2017-08-28T00:17:00.375Z,19.30
2017-08-28T00:19:29.590Z,19.30
2017-08-28T00:21:57.135Z,19.30
2017-08-28T00:24:24.655Z,19.30
2017-08-28T00:26:52.171Z,19.20
2017-08-28T00:29:19.681Z,19.20
2017-08-28T00:31:47.198Z,19.20
2017-08-28T00:34:14.735Z,19.20
2017-08-28T00:36:43.615Z,19.10
2017-08-28T00:39:14.168Z,19.10
2017-08-28T00:41:41.720Z,19.10
2017-08-28T00:44:09.224Z,19.10
2017-08-28T00:46:38.690Z,19.10
2017-08-28T00:49:06.214Z,19.00
2017-08-28T00:51:34.485Z,19.10
2017-08-28T00:54:02.207Z,19.10
2017-08-28T00:56:29.720Z,19.10
2017-08-28T00:58:59.666Z,19.10
2017-08-28T01:01:27.371Z,19.20
2017-08-28T01:03:54.899Z,19.10
2017-08-28T01:06:23.238Z,19.10
2017-08-28T01:08:52.223Z,19.10
2017-08-28T01:11:22.775Z,19.10
2017-08-28T01:13:50.342Z,19.10
2017-08-28T01:16:17.843Z,19.10
2017-08-28T01:18:46.295Z,19.00
2017-08-28T01:21:13.807Z,18.90
2017-08-28T01:23:41.315Z,18.80
2017-08-28T01:26:09.312Z,18.80
2017-08-28T01:28:36.835Z,18.80
2017-08-28T01:31:04.352Z,18.80
2017-08-28T01:33:31.863Z,18.80
2017-08-28T01:35:59.966Z,18.70
2017-08-28T01:38:27.535Z,18.70
2017-08-28T01:40:55.043Z,18.80
2017-08-28T01:43:22.561Z,18.80
2017-08-28T01:45:50.067Z,18.70
2017-08-28T01:48:18.608Z,18.70
2017-08-28T01:50:46.159Z,18.80
2017-08-28T01:53:14.453Z,18.80
2017-08-28T01:55:45.632Z,18.80
2017-08-28T01:58:14.285Z,18.80
2017-08-28T02:00:41.799Z,18.70
2017-08-28T02:03:09.307Z,18.80
2017-08-28T02:05:36.816Z,18.70
2017-08-28T02:08:04.701Z,18.70
2017-08-28T02:10:36.484Z,18.70
2017-08-28T02:13:03.991Z,18.70
2017-08-28T02:15:31.511Z,18.60
2017-08-28T02:17:59.025Z,18.50
2017-08-28T02:20:26.752Z,18.40
2017-08-28T02:22:54.300Z,18.40
2017-08-28T02:25:22.286Z,18.30
2017-08-28T02:27:52.979Z,18.20
2017-08-28T02:30:20.490Z,18.10
2017-08-28T02:32:48.065Z,18.00
2017-08-28T02:35:15.932Z,17.90
2017-08-28T02:37:43.451Z,17.80
2017-08-28T02:40:15.194Z,17.70
2017-08-28T02:42:42.700Z,17.60
2017-08-28T02:45:10.211Z,17.70
2017-08-28T02:47:37.876Z,17.60
2017-08-28T02:50:05.399Z,17.60
2017-08-28T02:52:33.011Z,17.50
2017-08-28T02:55:01.247Z,17.50
2017-08-28T02:57:28.768Z,17.40
2017-08-28T02:59:56.289Z,17.40
2017-08-28T03:02:23.864Z,17.40
2017-08-28T03:04:51.381Z,17.40
2017-08-28T03:07:20.579Z,17.50
2017-08-28T03:09:48.107Z,17.50
2017-08-28T03:12:15.632Z,17.60
2017-08-28T03:17:17.176Z,17.70
2017-08-28T03:19:45.655Z,17.80
2017-08-28T03:22:13.171Z,17.80
2017-08-28T03:24:40.685Z,17.80
2017-08-28T03:27:08.209Z,17.80
2017-08-28T03:29:35.744Z,17.80
2017-08-28T03:32:03.346Z,17.80
2017-08-28T03:34:31.132Z,17.80
2017-08-28T03:36:59.339Z,17.90
2017-08-28T03:39:26.860Z,17.90
2017-08-28T03:41:55.746Z,17.90
2017-08-28T03:44:24.217Z,17.90
2017-08-28T03:46:51.840Z,17.90
2017-08-28T03:49:19.363Z,17.90
2017-08-28T03:51:46.948Z,17.90
2017-08-28T03:54:14.451Z,17.80
2017-08-28T03:56:45.486Z,17.70
2017-08-28T03:59:13.603Z,17.50
2017-08-28T04:01:41.140Z,17.40
2017-08-28T04:04:08.666Z,17.40
2017-08-28T04:06:36.243Z,17.30
2017-08-28T04:09:03.755Z,17.30
2017-08-28T04:11:31.316Z,17.20
2017-08-28T04:14:03.013Z,17.20
2017-08-28T04:16:30.843Z,17.10
2017-08-28T04:18:58.357Z,17.00
2017-08-28T04:21:25.875Z,17.00
2017-08-28T04:23:54.201Z,16.90
2017-08-28T04:26:21.876Z,16.80
2017-08-28T04:28:53.271Z,16.80
2017-08-28T04:31:20.812Z,16.80
2017-08-28T04:33:48.390Z,16.80
2017-08-28T04:36:16.452Z,16.70
2017-08-28T04:38:44.022Z,16.70
2017-08-28T04:41:11.564Z,16.70
2017-08-28T04:43:39.397Z,16.70
2017-08-28T04:46:06.941Z,16.80
2017-08-28T04:48:34.599Z,16.80
2017-08-28T04:51:02.110Z,16.80
2017-08-28T04:53:30.398Z,16.80
2017-08-28T04:55:57.915Z,16.90
2017-08-28T04:58:28.508Z,17.00
2017-08-28T05:00:56.019Z,17.20
2017-08-28T05:03:23.611Z,17.50
2017-08-28T05:05:51.116Z,17.70
2017-08-28T05:08:18.684Z,17.90
2017-08-28T05:10:46.730Z,18.10
2017-08-28T05:13:14.361Z,18.20
2017-08-28T05:15:41.873Z,18.40
2017-08-28T05:18:09.412Z,18.60
2017-08-28T05:20:37.373Z,18.80
2017-08-28T05:23:04.919Z,18.90
2017-08-28T05:25:33.215Z,19.20
2017-08-28T05:28:00.991Z,19.40
2017-08-28T05:30:32.067Z,19.60
2017-08-28T05:33:00.450Z,19.80
2017-08-28T05:35:28.381Z,20.00
2017-08-28T05:37:55.907Z,20.10
2017-08-28T05:40:23.480Z,20.10
2017-08-28T05:42:50.996Z,20.10
2017-08-28T05:45:18.504Z,20.00
2017-08-28T05:47:46.022Z,20.00
2017-08-28T05:50:13.572Z,20.00
2017-08-28T05:52:42.012Z,20.00
2017-08-28T05:55:09.739Z,20.00
2017-08-28T05:57:37.281Z,20.20
2017-08-28T06:00:06.480Z,20.10
2017-08-28T06:02:34.760Z,19.70
2017-08-28T06:05:03.040Z,19.40
2017-08-28T06:07:32.291Z,19.30
2017-08-28T06:09:59.803Z,19.20
2017-08-28T06:12:28.084Z,19.20
2017-08-28T06:14:56.793Z,19.10
2017-08-28T06:17:24.327Z,19.20
2017-08-28T06:19:52.606Z,19.30
2017-08-28T06:22:21.014Z,19.30
2017-08-28T06:24:48.511Z,19.40
2017-08-28T06:27:16.039Z,19.40
2017-08-28T06:29:47.476Z,19.40
2017-08-28T06:32:15.933Z,19.40
2017-08-28T06:34:43.767Z,19.50
2017-08-28T06:37:11.385Z,19.60
2017-08-28T06:39:38.894Z,19.60
2017-08-28T06:42:06.411Z,19.60
2017-08-28T06:44:37.674Z,19.80
2017-08-28T06:47:05.419Z,19.80
2017-08-28T06:49:32.939Z,19.90
2017-08-28T06:52:00.459Z,19.90
2017-08-28T06:54:27.966Z,20.00
2017-08-28T06:56:55.548Z,20.00
2017-08-28T06:59:24.013Z,20.10
2017-08-28T07:01:51.584Z,20.10
2017-08-28T07:04:19.111Z,20.20
2017-08-28T07:06:46.700Z,20.20
2017-08-28T07:09:14.772Z,20.30
2017-08-28T07:11:43.252Z,20.40
2017-08-28T07:14:11.059Z,20.20
2017-08-28T07:16:42.089Z,20.30
2017-08-28T07:19:09.826Z,20.30
2017-08-28T07:21:38.145Z,20.40
2017-08-28T07:24:06.424Z,20.60
2017-08-28T07:26:34.476Z,20.60
2017-08-28T07:29:03.341Z,20.70
2017-08-28T07:31:31.988Z,20.80
2017-08-28T07:34:03.388Z,20.90
2017-08-28T07:36:30.912Z,20.90
2017-08-28T07:38:59.191Z,21.00
2017-08-28T07:41:26.712Z,21.00
2017-08-28T07:43:54.366Z,21.10
2017-08-28T07:46:26.652Z,21.00
2017-08-28T07:48:54.268Z,21.10
2017-08-28T07:51:21.795Z,21.20
2017-08-28T07:53:50.125Z,21.20
2017-08-28T07:56:17.680Z,21.20
2017-08-28T07:58:45.384Z,21.20
2017-08-28T08:01:17.140Z,21.30
2017-08-28T08:03:44.651Z,21.40
2017-08-28T08:06:12.295Z,21.20
2017-08-28T08:08:39.807Z,21.30
2017-08-28T08:11:07.359Z,21.50
2017-08-28T08:13:34.911Z,21.70
2017-08-28T08:16:06.131Z,21.80
2017-08-28T08:18:33.655Z,22.00
2017-08-28T08:21:01.502Z,22.10
2017-08-28T08:23:29.032Z,22.20
2017-08-28T08:25:57.123Z,22.30
2017-08-28T08:28:24.673Z,22.50
2017-08-28T08:30:52.199Z,22.40
2017-08-28T08:33:25.290Z,22.40
2017-08-28T08:35:52.800Z,22.50
2017-08-28T08:38:20.382Z,22.40
2017-08-28T08:40:48.022Z,22.20
2017-08-28T08:43:15.907Z,22.20
2017-08-28T08:45:43.521Z,22.20
2017-08-28T08:48:11.027Z,22.30
2017-08-28T08:50:39.066Z,22.50
2017-08-28T08:53:06.610Z,22.60
2017-08-28T08:55:35.272Z,22.70
2017-08-28T08:58:02.792Z,22.90
2017-08-28T09:00:30.295Z,23.10
2017-08-28T09:02:57.808Z,23.10
2017-08-28T09:05:26.111Z,23.00
2017-08-28T09:07:54.202Z,23.00
2017-08-28T09:10:21.754Z,23.00
2017-08-28T09:12:49.315Z,23.00
2017-08-28T09:15:16.839Z,23.00
2017-08-28T09:17:44.383Z,23.00
2017-08-28T09:20:11.893Z,23.10
2017-08-28T09:22:39.444Z,23.20
2017-08-28T09:25:07.969Z,23.10
2017-08-28T09:27:35.500Z,23.20
2017-08-28T09:30:03.010Z,23.30
2017-08-28T09:32:30.520Z,23.50
2017-08-28T09:34:58.132Z,23.60
2017-08-28T09:37:25.648Z,23.60
2017-08-28T09:39:53.154Z,23.50
2017-08-28T09:42:20.699Z,23.50
2017-08-28T09:44:49.356Z,23.60
2017-08-28T09:47:16.888Z,23.60
2017-08-28T09:49:44.445Z,23.60
2017-08-28T09:52:11.992Z,23.60
2017-08-28T09:54:39.527Z,23.70
2017-08-28T09:57:07.223Z,23.80
2017-08-28T09:59:35.287Z,24.00
2017-08-28T10:02:02.791Z,24.00
2017-08-28T10:04:30.319Z,24.20
2017-08-28T10:06:57.836Z,24.30
2017-08-28T10:09:25.347Z,24.40
2017-08-28T10:11:53.779Z,24.20
2017-08-28T10:14:21.296Z,24.20
2017-08-28T10:16:48.848Z,24.20
2017-08-28T10:19:16.475Z,24.30
2017-08-28T10:21:43.978Z,24.40
2017-08-28T10:24:11.480Z,24.50
2017-08-28T10:26:38.570Z,24.70
2017-08-28T10:29:06.092Z,24.70
2017-08-28T10:31:33.614Z,24.70
2017-08-28T10:34:03.051Z,25.00
2017-08-28T10:36:32.255Z,25.10
2017-08-28T10:38:59.779Z,25.10
2017-08-28T10:41:27.283Z,25.30
2017-08-28T10:43:56.073Z,25.20
2017-08-28T10:46:23.616Z,25.20
2017-08-28T10:48:51.524Z,25.10
2017-08-28T10:51:19.028Z,24.80
2017-08-28T10:53:46.548Z,24.80
2017-08-28T10:56:14.109Z,24.60
2017-08-28T10:58:41.627Z,24.70
2017-08-28T11:01:09.183Z,24.70
2017-08-28T11:03:39.931Z,24.80
2017-08-28T11:06:07.447Z,24.90
2017-08-28T11:08:35.560Z,25.10
2017-08-28T11:11:03.211Z,25.20
2017-08-28T11:13:30.749Z,25.40
2017-08-28T11:15:58.340Z,25.40
2017-08-28T11:18:27.054Z,25.50
2017-08-28T11:20:54.982Z,25.50
2017-08-28T11:23:22.528Z,25.70
2017-08-28T11:25:50.063Z,25.70
2017-08-28T11:28:17.784Z,25.60
2017-08-28T11:30:45.331Z,25.60
2017-08-28T11:33:13.551Z,25.40
2017-08-28T11:35:41.068Z,25.20
2017-08-28T11:38:12.293Z,25.00
2017-08-28T11:40:40.018Z,25.00
2017-08-28T11:43:08.484Z,25.00
2017-08-28T11:45:36.056Z,25.10
2017-08-28T11:48:03.589Z,25.20
2017-08-28T11:50:31.096Z,25.30
2017-08-28T11:52:58.649Z,25.50
2017-08-28T11:55:26.202Z,25.50
2017-08-28T11:57:54.503Z,25.70
2017-08-28T12:00:22.007Z,25.60
2017-08-28T12:02:49.955Z,25.70
2017-08-28T12:05:17.481Z,25.80
2017-08-28T12:07:45.039Z,25.70
2017-08-28T12:10:12.555Z,25.70
2017-08-28T12:12:40.056Z,25.70
2017-08-28T12:15:07.755Z,25.60
2017-08-28T12:17:35.894Z,25.50
2017-08-28T12:20:15.064Z,25.50
2017-08-28T12:22:42.576Z,25.50
2017-08-28T12:25:10.891Z,25.50
2017-08-28T12:27:38.635Z,25.50
2017-08-28T12:30:07.023Z,25.50
2017-08-28T12:32:34.660Z,25.60
2017-08-28T12:35:02.535Z,25.70
2017-08-28T12:37:30.072Z,25.80
2017-08-28T12:39:57.579Z,25.70
2017-08-28T12:42:26.010Z,25.70
2017-08-28T12:44:53.527Z,25.80
2017-08-28T12:47:21.971Z,25.80
2017-08-28T12:49:49.485Z,25.80
2017-08-28T12:52:20.754Z,25.80
2017-08-28T12:54:48.477Z,25.70
2017-08-28T12:57:15.987Z,25.70
2017-08-28T12:59:43.504Z,25.70
2017-08-28T13:02:11.028Z,25.60
2017-08-28T13:04:38.555Z,25.70
2017-08-28T13:07:06.101Z,25.90
2017-08-28T13:09:34.331Z,26.00
2017-08-28T13:12:01.835Z,25.90
2017-08-28T13:14:30.132Z,26.00
2017-08-28T13:16:57.733Z,26.00
2017-08-28T13:19:25.252Z,26.10
2017-08-28T13:22:04.957Z,26.20
2017-08-28T13:24:32.499Z,26.20
2017-08-28T13:27:00.051Z,26.20
2017-08-28T13:29:27.574Z,26.10
2017-08-28T13:31:55.131Z,26.10
2017-08-28T13:34:22.731Z,26.30
2017-08-28T13:36:53.838Z,26.10
2017-08-28T13:39:21.364Z,26.00
2017-08-28T13:41:49.103Z,26.00
2017-08-28T13:44:16.672Z,26.00
2017-08-28T13:46:44.175Z,26.10
2017-08-28T13:49:11.772Z,26.20
2017-08-28T13:51:39.295Z,26.00
2017-08-28T13:54:06.806Z,26.00
2017-08-28T13:56:34.346Z,26.10
2017-08-28T13:59:01.945Z,26.10
2017-08-28T14:01:30.598Z,26.40
2017-08-28T14:03:58.112Z,26.40
2017-08-28T14:06:26.410Z,26.20
2017-08-28T14:08:53.947Z,26.20
2017-08-28T14:11:21.939Z,26.00
2017-08-28T14:13:49.476Z,25.90
2017-08-28T14:16:17.783Z,26.10
2017-08-28T14:18:45.343Z,26.10
2017-08-28T14:21:13.252Z,26.30
2017-08-28T14:23:40.805Z,26.30
2017-08-28T14:26:08.303Z,26.10
2017-08-28T14:28:36.705Z,26.10
2017-08-28T14:31:04.404Z,26.30
2017-08-28T14:33:31.900Z,26.50
2017-08-28T14:35:59.721Z,26.40
2017-08-28T14:38:27.253Z,26.30
2017-08-28T14:40:54.815Z,26.10
2017-08-28T14:43:22.567Z,26.20
2017-08-28T14:45:50.076Z,26.30
2017-08-28T14:48:17.647Z,26.30
2017-08-28T14:50:45.245Z,26.30
2017-08-28T14:53:12.749Z,26.20
2017-08-28T14:55:40.329Z,26.10
2017-08-28T14:58:07.859Z,26.10
2017-08-28T15:00:35.373Z,26.10
2017-08-28T15:03:02.943Z,26.10
2017-08-28T15:05:30.453Z,26.20
2017-08-28T15:07:58.042Z,26.20
2017-08-28T15:10:25.543Z,26.20
2017-08-28T15:12:53.067Z,26.10
2017-08-28T15:15:20.587Z,26.10
2017-08-28T15:17:48.223Z,26.10
2017-08-28T15:20:15.763Z,26.20
2017-08-28T15:22:43.267Z,26.10
2017-08-28T15:25:10.822Z,26.10
2017-08-28T15:27:38.382Z,26.10
2017-08-28T15:30:06.163Z,26.20
2017-08-28T15:32:34.476Z,26.30
2017-08-28T15:35:02.777Z,26.30
2017-08-28T15:37:30.336Z,26.40
2017-08-28T15:39:57.847Z,26.40
2017-08-28T15:42:26.142Z,26.40
2017-08-28T15:44:53.717Z,26.40
2017-08-28T15:47:21.228Z,26.50
2017-08-28T15:49:49.428Z,26.40
2017-08-28T15:52:17.191Z,26.40
2017-08-28T15:54:49.572Z,26.30
2017-08-28T15:57:17.130Z,26.30
2017-08-28T15:59:46.011Z,26.30
2017-08-28T16:02:13.530Z,26.30
2017-08-28T16:04:41.093Z,26.30
2017-08-28T16:07:08.601Z,26.20
2017-08-28T16:09:36.511Z,26.10
2017-08-28T16:12:04.649Z,25.90
2017-08-28T16:14:32.154Z,25.90
2017-08-28T16:16:59.752Z,25.80
2017-08-28T16:19:27.526Z,25.80
2017-08-28T16:21:55.069Z,25.80
2017-08-28T16:24:23.495Z,25.80
2017-08-28T16:26:51.393Z,25.80
2017-08-28T16:29:18.952Z,25.70
2017-08-28T16:31:46.501Z,25.60
2017-08-28T16:34:14.073Z,25.60
2017-08-28T16:36:41.580Z,25.50
2017-08-28T16:39:09.101Z,25.40
2017-08-28T16:41:37.542Z,25.30
2017-08-28T16:44:05.121Z,25.30
2017-08-28T16:46:32.690Z,25.30
2017-08-28T16:49:00.248Z,25.20
2017-08-28T16:51:27.859Z,25.20
2017-08-28T16:53:55.355Z,25.10
2017-08-28T16:56:22.918Z,25.00
2017-08-28T16:58:51.076Z,24.80
2017-08-28T17:01:18.602Z,24.80
2017-08-28T17:03:46.134Z,24.80
2017-08-28T17:06:13.671Z,25.80
2017-08-28T17:08:41.244Z,27.00
2017-08-28T17:11:08.759Z,28.00
2017-08-28T17:13:36.473Z,28.40
2017-08-28T17:16:05.712Z,27.70
2017-08-28T17:18:33.269Z,27.60
2017-08-28T17:21:01.426Z,27.90
2017-08-28T17:23:29.467Z,27.70
2017-08-28T17:25:57.112Z,27.90
2017-08-28T17:28:24.636Z,27.90
2017-08-28T17:30:52.192Z,27.50
2017-08-28T17:33:19.696Z,27.40
2017-08-28T17:35:47.536Z,27.40
2017-08-28T17:38:15.121Z,27.20
2017-08-28T17:40:43.344Z,27.40
2017-08-28T17:43:10.856Z,27.00
2017-08-28T17:45:38.364Z,26.30
2017-08-28T17:48:05.906Z,25.90
2017-08-28T17:50:33.447Z,25.20
2017-08-28T17:53:00.991Z,24.70
2017-08-28T17:55:28.804Z,24.30
2017-08-28T17:57:57.143Z,23.80
2017-08-28T18:00:24.655Z,23.50
2017-08-28T18:02:52.164Z,23.20
2017-08-28T18:05:19.679Z,23.00
2017-08-28T18:07:47.181Z,22.90
2017-08-28T18:10:14.736Z,22.70
2017-08-28T18:12:42.279Z,22.60
2017-08-28T18:15:09.871Z,22.50
2017-08-28T18:17:38.167Z,22.20
2017-08-28T18:20:05.685Z,22.20
2017-08-28T18:22:33.275Z,22.10
2017-08-28T18:25:00.798Z,22.00
2017-08-28T18:27:30.079Z,21.90
2017-08-28T18:29:57.595Z,21.90
2017-08-28T18:32:25.163Z,21.80
2017-08-28T18:34:52.674Z,21.70
2017-08-28T18:37:20.183Z,21.60
2017-08-28T18:39:47.729Z,21.60
2017-08-28T18:42:15.252Z,21.40
2017-08-28T18:44:43.640Z,21.30
2017-08-28T18:47:12.112Z,21.20
2017-08-28T18:49:39.668Z,21.00
2017-08-28T18:52:08.876Z,20.60
2017-08-28T18:54:36.572Z,20.60
2017-08-28T18:57:04.376Z,20.50
2017-08-28T18:59:32.571Z,20.40
2017-08-28T19:02:00.923Z,20.10
2017-08-28T19:04:29.224Z,20.00
2017-08-28T19:06:58.587Z,19.90
2017-08-28T19:09:26.131Z,19.90
2017-08-28T19:11:53.630Z,19.80
2017-08-28T19:14:22.106Z,19.70
2017-08-28T19:16:49.614Z,19.70
2017-08-28T19:19:17.115Z,19.50
2017-08-28T19:21:44.636Z,19.50
2017-08-28T19:24:12.230Z,19.40
2017-08-28T19:26:42.840Z,19.30
2017-08-28T19:29:17.463Z,19.20
2017-08-28T19:31:44.965Z,19.10
2017-08-28T19:34:15.519Z,19.00
2017-08-28T19:36:43.051Z,19.00
2017-08-28T19:39:10.651Z,19.00
2017-08-28T19:41:38.313Z,18.90
2017-08-28T19:44:06.087Z,18.90
2017-08-28T19:46:33.835Z,18.90
2017-08-28T19:49:01.717Z,18.90
2017-08-28T19:51:29.257Z,18.80
2017-08-28T19:53:56.780Z,18.80
2017-08-28T19:56:24.339Z,18.70
2017-08-28T19:58:51.866Z,18.80
2017-08-28T20:01:19.767Z,18.70
2017-08-28T20:03:47.279Z,18.60
2017-08-28T20:06:16.270Z,18.60
2017-08-28T20:08:43.817Z,18.60
2017-08-28T20:11:11.744Z,18.50
2017-08-28T20:13:39.935Z,18.50
2017-08-28T20:16:08.267Z,18.40
2017-08-28T20:18:35.780Z,18.40
2017-08-28T20:21:05.044Z,18.30
2017-08-28T20:23:32.774Z,18.30
2017-08-28T20:26:00.788Z,18.20
2017-08-28T20:28:29.224Z,18.20
2017-08-28T20:30:57.240Z,18.10
2017-08-28T20:33:25.265Z,18.00
2017-08-28T20:35:52.783Z,17.90
2017-08-28T20:38:20.291Z,17.90
2017-08-28T20:40:48.880Z,17.90
2017-08-28T20:43:16.843Z,17.90
2017-08-28T20:45:44.396Z,17.90
2017-08-28T20:48:11.927Z,17.80
2017-08-28T20:50:39.576Z,17.80
2017-08-28T20:53:07.711Z,17.70
2017-08-28T20:55:35.275Z,17.70
2017-08-28T20:58:02.791Z,17.60
2017-08-28T21:00:30.478Z,17.60
2017-08-28T21:02:57.991Z,17.50
2017-08-28T21:05:25.756Z,17.50
2017-08-28T21:07:54.039Z,17.40
2017-08-28T21:10:22.132Z,17.40
2017-08-28T21:12:49.664Z,17.40
2017-08-28T21:15:19.935Z,17.30
2017-08-28T21:17:47.458Z,17.30
2017-08-28T21:20:15.904Z,17.30
2017-08-28T21:22:43.436Z,17.30
2017-08-28T21:25:11.175Z,17.30
2017-08-28T21:27:39.350Z,17.20
2017-08-28T21:30:06.875Z,17.10
2017-08-28T21:32:34.463Z,17.10
2017-08-28T21:35:02.003Z,17.00
2017-08-28T21:37:29.973Z,17.00
2017-08-28T21:39:57.527Z,17.00
2017-08-28T21:42:25.028Z,17.00
2017-08-28T21:44:56.054Z,17.00
2017-08-28T21:47:23.565Z,16.90
2017-08-28T21:49:51.275Z,16.90
2017-08-28T21:52:19.363Z,16.90
2017-08-28T21:54:46.876Z,16.80
2017-08-28T21:57:15.189Z,16.70
2017-08-28T21:59:42.698Z,16.70
2017-08-28T22:02:10.264Z,16.60
2017-08-28T22:04:38.805Z,16.60
2017-08-28T22:07:06.313Z,16.60
2017-08-28T22:09:33.831Z,16.50
2017-08-28T22:12:01.434Z,16.50
2017-08-28T22:14:31.884Z,16.50
2017-08-28T22:16:59.421Z,16.40
2017-08-28T22:19:36.912Z,16.40
2017-08-28T22:22:04.497Z,16.30
2017-08-28T22:24:32.519Z,16.30
2017-08-28T22:27:00.092Z,16.30
2017-08-28T22:29:27.802Z,16.30
2017-08-28T22:31:55.334Z,16.30
2017-08-28T22:34:23.464Z,16.30
2017-08-28T22:36:51.019Z,16.20
2017-08-28T22:39:18.579Z,16.20
2017-08-28T22:41:46.132Z,16.10
2017-08-28T22:44:13.641Z,16.10
2017-08-28T22:46:41.478Z,16.10
2017-08-28T22:49:09.021Z,16.10
2017-08-28T22:51:37.947Z,15.90
2017-08-28T22:54:05.484Z,15.90
2017-08-28T22:56:33.054Z,15.90
2017-08-28T22:59:00.572Z,15.90
2017-08-28T23:01:32.106Z,15.80
2017-08-28T23:03:59.651Z,15.80
2017-08-28T23:06:27.167Z,15.80
2017-08-28T23:08:54.784Z,15.80
2017-08-28T23:11:22.341Z,15.70
2017-08-28T23:13:49.880Z,15.70
2017-08-28T23:16:20.862Z,15.70
2017-08-28T23:18:48.611Z,15.70
2017-08-28T23:21:16.324Z,15.70
2017-08-28T23:23:46.900Z,15.60
2017-08-28T23:26:14.487Z,15.60
2017-08-28T23:28:42.016Z,15.50
2017-08-28T23:31:11.423Z,15.50
2017-08-28T23:33:42.875Z,15.40
2017-08-28T23:36:10.887Z,15.50
2017-08-28T23:38:38.418Z,15.50
2017-08-28T23:41:05.935Z,15.40
2017-08-28T23:43:34.312Z,15.40
2017-08-28T23:46:02.120Z,15.30
2017-08-28T23:48:30.335Z,15.30
2017-08-28T23:50:58.051Z,15.30
2017-08-28T23:53:25.576Z,15.30
2017-08-28T23:55:53.087Z,15.30
2017-08-28T23:58:20.591Z,15.20
